Williamsburg, OH (45176)

7:32 AM EDT on August 25, 2016 (GMT -0400)
Will's Point Weather Station | | Change Station
Active Advisory: Special Statement

Elev 938 ft 39.03 °N, 83.95 °W | Updated 26 seconds ago

Clear
Clear
74.8 °F
Feels Like 72 °F
N
7.4
Wind Variable Wind from SW
Gusts 7.4 mph

Today
High -- | Low -- °F
--% Chance of Precip.
Yesterday
High -- | Low -- °F
Precip. -- in
Pressure 30.10 in
Visibility 10.0 miles
Clouds Clear
Heat Index 72 °F
Dew Point 75 °F
Humidity 100%
Rainfall 0.00 in
Snow Depth Not available.
6:59 AM 8:16 PM
Waning Gibbous, 46% visible
METAR KI69 251114Z AUTO 20003KT 10SM CLR 24/24 A3010 RMK AO2 T02350235
Pressure 30.10 in
Visibility 10.0 miles
Clouds Clear
Heat Index 72 °F
Dew Point 75 °F
Humidity 100%
Rainfall 0.00 in
Snow Depth Not available.
6:59 AM 8:16 PM
Waning Gibbous, 46% visible
METAR KI69 251114Z AUTO 20003KT 10SM CLR 24/24 A3010 RMK AO2 T02350235

10-Day Weather Forecast

Almanac

Astronomy

Aug. 25, 2016 Rise Set
Actual Time
Civil Twilight
Nautical Twilight
Astronomical Twilight
Moon
Length of Visible Light
Length of Day
Tomorrow will be .
, % of the Moon is Illuminated

Today's Extremes

State Highs State Lows

Community

WunderPhotos

Upload Photos

1,934,822 photos uploaded!

WunderBlog® & News

Nearby

Air Quality

  Air Quality AQ Index Pollutant
Not available.

Snow Depth

Station Depth Elevation

Earthquake Activity

City Distance Mag. Time & Date
Minimum magnitude displayed is 2.5.

Coastal Water Temperatures

Place Temperature

Stations

Nearby Weather Stations

Station Location Temp. Windchill Dew Point Humidity Wind Precip. Elev Updated Type
                   

Watches & Warnings

Special Statement
Issued: 4:36 AM EDT Aug. 25, 2016 – National Weather Service

... Hot and humid conditions expected this afternoon...

Temperatures in the upper 80s to the lower 90s will combine with
high humidities to produce heat indices in the upper 90s to around
100 degrees this afternoon.

If possible... spend more time in an air conditioned or well
ventilated place this afternoon. If you will be outside... wear
light weight and loose fitting clothing. Remember to drink plenty
of water.



436 am EDT Thu Aug 25 2016

... Hot and humid conditions expected this afternoon...

Temperatures in the upper 80s to the lower 90s will combine with
high humidities to produce heat indices in the upper 90s to around
100 degrees this afternoon.

If possible... spend more time in an air conditioned or well
ventilated place this afternoon. If you will be outside... wear
light weight and loose fitting clothing. Remember to drink plenty
of water.